Data for 11/18/2008

Time Sea-Level Adjusted Pressure Absolute Pressure Temperature Relative Humidity Dew Point   
(mb) (inHg) (mb) (inHg) (C) (F) (%) (C) (F)
00:05 1024 30.24 853 25.19 11.6 52.9 27 -6.9 19.5
00:10 1024 30.24 853 25.19 11.7 53.1 26 -7 19.4
00:15 1024 30.24 853 25.19 11.8 53.2 27 -6.7 19.9
00:20 1024 30.24 853 25.19 11.8 53.3 27 -6.7 19.9
00:25 1024 30.24 853 25.19 11.6 53 26 -7.1 19.2
00:30 1024 30.24 853 25.19 11.8 53.2 26 -6.9 19.5
00:35 1024 30.24 853 25.19 11.5 52.6 28 -6.2 20.8
00:40 1024 30.24 853 25.19 11.1 51.9 29 -6.2 20.9
00:45 1024 30.24 853 25.19 10.8 51.5 28 -6.8 19.8
00:50 1024 30.24 853 25.19 10.9 51.6 28 -6.9 19.6
00:55 1024 30.24 853 25.19 11 51.7 28 -6.8 19.7
01:00 1024 30.24 853 25.19 11.1 51.9 28 -6.7 20
01:05 1023 30.21 853 25.19 11.1 51.9 28 -6.6 20.1
01:10 1023 30.21 853 25.19 11.3 52.3 27 -6.8 19.8
01:15 1023 30.21 853 25.19 11 51.8 29 -6.1 20.9
01:20 1023 30.21 853 25.19 10.5 50.9 30 -6.3 20.6
01:25 1023 30.21 852 25.16 10.4 50.8 30 -6.4 20.4
01:30 1023 30.21 852 25.16 10.5 50.8 30 -6.5 20.3
01:35 1023 30.21 852 25.16 10.4 50.7 30 -6.5 20.2
01:40 1023 30.21 852 25.16 10.2 50.3 30 -6.4 20.5
01:45 1023 30.21 852 25.16 10.5 50.8 29 -6.9 19.5
01:50 1023 30.21 852 25.16 10.7 51.2 29 -6.6 20.1
01:55 1023 30.21 852 25.16 10.7 51.3 29 -6.6 20.1
02:00 1023 30.21 852 25.16 10.7 51.2 29 -6.7 20
02:05 1023 30.21 852 25.16 10.6 51.1 29 -6.5 20.2
02:10 1023 30.21 852 25.16 10.6 51 30 -6.3 20.7
02:15 1023 30.21 852 25.16 10.1 50.2 31 -6.3 20.7
02:20 1023 30.21 852 25.16 9.7 49.5 32 -6.3 20.7
02:25 1023 30.21 852 25.16 9.6 49.2 31 -6.5 20.2
02:30 1023 30.21 852 25.16 10 50 30 -6.8 19.8
02:35 1023 30.21 852 25.16 10.3 50.5 29 -6.8 19.8
02:40 1023 30.21 852 25.16 10.1 50.2 31 -6.4 20.6
02:45 1023 30.21 852 25.16 10 49.9 29 -7.1 19.3
02:50 1023 30.21 852 25.16 10 50 29 -7.3 18.8
02:55 1023 30.21 852 25.16 9.9 49.9 30 -6.7 20
03:00 1023 30.21 852 25.16 9.6 49.3 30 -7.2 19.1
03:05 1023 30.21 852 25.16 9.5 49.1 28 -7.9 17.8
03:10 1023 30.21 852 25.16 9.8 49.6 30 -7.1 19.3
03:15 1023 30.21 852 25.16 9 48.2 31 -7.4 18.8
03:20 1023 30.21 852 25.16 9.2 48.6 31 -7 19.4
03:25 1023 30.21 852 25.16 9 48.2 31 -7.3 18.9
03:30 1023 30.21 852 25.16 8.9 48.1 29 -7.9 17.7
03:35 1023 30.21 852 25.16 8.9 48.1 29 -8.2 17.2
03:40 1023 30.21 852 25.16 9.1 48.4 28 -8.5 16.7
03:45 1023 30.21 852 25.16 9.4 48.9 28 -8 17.6
03:50 1022 30.18 852 25.16 9.2 48.6 29 -7.9 17.8
03:55 1022 30.18 852 25.16 9 48.1 29 -8.3 17.1
04:00 1022 30.18 852 25.16 8.9 48 30 -7.8 17.9
04:05 1022 30.18 852 25.16 8.7 47.6 33 -6.8 19.7
04:10 1022 30.18 851 25.13 8 46.3 32 -7.8 17.9
04:15 1022 30.18 851 25.13 7.9 46.2 31 -8 17.6
04:20 1022 30.18 851 25.13 8 46.4 32 -7.8 17.9
04:25 1022 30.18 851 25.13 8.4 47.1 31 -7.7 18.1
04:30 1022 30.18 851 25.13 8.2 46.7 32 -7.6 18.3
04:35 1022 30.18 851 25.13 8.2 46.8 32 -7.3 18.8
04:40 1022 30.18 851 25.13 8.5 47.3 31 -7.5 18.4
04:45 1022 30.18 851 25.13 8.4 47.2 32 -7.3 18.9
04:50 1022 30.18 851 25.13 8.1 46.5 34 -6.7 19.9
04:55 1022 30.18 851 25.13 7.6 45.6 34 -7.3 18.9
05:00 1022 30.18 851 25.13 7.7 45.9 34 -7.2 19
05:05 1022 30.18 851 25.13 7.9 46.2 33 -7.3 18.9
05:10 1022 30.18 851 25.13 7.7 45.8 36 -6.4 20.5
05:15 1022 30.18 851 25.13 7.2 44.9 35 -7.2 19.1
05:20 1022 30.18 851 25.13 7.5 45.5 33 -7.9 17.8
05:25 1022 30.18 851 25.13 8.2 46.7 32 -7.7 18.2
05:30 1022 30.18 851 25.13 8.5 47.4 30 -8 17.6
05:35 1022 30.18 851 25.13 8.9 48 30 -7.8 18
05:40 1022 30.18 851 25.13 9 48.2 30 -7.6 18.3
05:45 1022 30.18 851 25.13 8.9 48 29 -8.3 17.1
05:50 1022 30.18 851 25.13 8.7 47.7 32 -7.1 19.2
05:55 1022 30.18 851 25.13 8 46.4 33 -7.2 19
06:00 1022 30.18 851 25.13 7.1 44.7 38 -6.2 20.9
06:05 1022 30.18 851 25.13 7 44.6 31 -9.1 15.7
06:10 1022 30.18 851 25.13 8.5 47.4 31 -7.5 18.5
06:15 1022 30.18 851 25.13 7.8 46 33 -7.5 18.6
06:20 1022 30.18 851 25.13 6.8 44.3 37 -6.8 19.8
06:25 1022 30.18 851 25.13 6.2 43.2 38 -7.2 19.1
06:30 1022 30.18 851 25.13 6.4 43.5 37 -7.3 18.9
06:35 1022 30.18 851 25.13 6.7 44.1 35 -7.6 18.3
06:40 1022 30.18 851 25.13 6.9 44.4 34 -7.9 17.8
06:45 1022 30.18 851 25.13 7.6 45.6 36 -6.6 20.1
06:50 1022 30.18 851 25.13 6.9 44.4 37 -6.8 19.7
06:55 1022 30.18 851 25.13 6.7 44.1 38 -6.7 19.9
07:00 1022 30.18 851 25.13 6.8 44.2 38 -6.7 19.9
07:05 1022 30.18 851 25.13 6.5 43.7 34 -8.1 17.4
07:10 1022 30.18 851 25.13 7.9 46.2 32 -7.8 17.9
07:15 1022 30.18 851 25.13 7 44.5 35 -7.4 18.6
07:20 1022 30.18 851 25.13 7.4 45.4 36 -6.5 20.3
07:25 1022 30.18 851 25.13 6.7 44.1 33 -8.3 17.1
07:30 1022 30.18 851 25.13 7.7 45.9 32 -8.1 17.5
07:35 1022 30.18 851 25.13 8.5 47.3 31 -7.8 17.9
07:40 1022 30.18 851 25.13 8.7 47.6 30 -8 17.6
07:45 1022 30.18 851 25.13 8.8 47.9 30 -7.8 18
07:50 1022 30.18 851 25.13 8.4 47.2 30 -8.1 17.4
07:55 1022 30.18 851 25.13 8 46.3 34 -6.8 19.8
08:00 1022 30.18 851 25.13 7.4 45.3 34 -7.6 18.3
08:05 1022 30.18 851 25.13 7.5 45.4 33 -7.9 17.7
08:10 1022 30.18 851 25.13 8.3 46.9 31 -8 17.6
08:15 1022 30.18 851 25.13 8.8 47.8 31 -7.4 18.7
08:20 1022 30.18 851 25.13 9.6 49.3 30 -7 19.4
08:25 1022 30.18 851 25.13 9.8 49.7 27 -8.3 17
08:30 1022 30.18 851 25.13 10.6 51 29 -6.8 19.8
08:35 1022 30.18 851 25.13 10.7 51.2 30 -6.3 20.6
08:40 1022 30.18 851 25.13 10.9 51.7 28 -6.7 19.9
08:45 1022 30.18 851 25.13 11 51.8 26 -7.8 18
08:50 1022 30.18 851 25.13 11.7 53 25 -7.7 18.1
08:55 1022 30.18 851 25.13 11.9 53.3 26 -7.1 19.3
09:00 1022 30.18 851 25.13 11.9 53.3 26 -7.2 19.1
09:05 1022 30.18 851 25.13 12.1 53.7 26 -6.8 19.8
09:10 1022 30.18 851 25.13 12.7 54.9 24 -7.2 19
09:15 1022 30.18 852 25.16 12.8 55 24 -7.1 19.2
09:20 1022 30.18 852 25.16 13.1 55.6 23 -7.5 18.6
09:25 1022 30.18 852 25.16 13.2 55.7 23 -7.4 18.7
09:30 1022 30.18 852 25.16 13.1 55.6 24 -7 19.3
09:35 1022 30.18 852 25.16 13.3 56 24 -6.8 19.8
09:40 1022 30.18 852 25.16 13.9 57 24 -6.5 20.3
09:45 1022 30.18 851 25.13 13.7 56.6 23 -6.8 19.8
09:50 1022 30.18 851 25.13 14.4 57.9 22 -6.7 19.9
09:55 1022 30.18 851 25.13 14.8 58.6 22 -6.4 20.4
10:00 1022 30.18 852 25.16 15.2 59.3 23 -5.9 21.4
10:05 1022 30.18 852 25.16 15.1 59.1 23 -6 21.3
10:10 1022 30.18 852 25.16 15.3 59.6 22 -6.1 21
10:15 1022 30.18 852 25.16 15.8 60.4 22 -5.7 21.8
10:20 1022 30.18 852 25.16 16.6 61.9 21 -5.5 22
10:25 1022 30.18 851 25.13 17 62.5 21 -5.3 22.4
10:30 1022 30.18 851 25.13 17 62.6 22 -4.6 23.7
10:35 1022 30.18 851 25.13 17.1 62.8 22 -4.8 23.4
10:40 1022 30.18 851 25.13 18 64.3 16 -8.5 16.6
10:45 1022 30.18 851 25.13 18.9 66 15 -8.2 17.2
10:50 1022 30.18 851 25.13 19.1 66.3 15 -7.7 18.2
10:55 1022 30.18 851 25.13 19.1 66.3 16 -7.5 18.5
11:00 1022 30.18 851 25.13 19.1 66.5 15 -8 17.6
11:05 1022 30.18 851 25.13 19.3 66.8 15 -7.6 18.3
11:10 1022 30.18 851 25.13 19.4 66.9 15 -7.8 17.9
11:15 1022 30.18 851 25.13 19.2 66.6 15 -8 17.6
11:20 1022 30.18 851 25.13 18.9 66 15 -8.4 17
11:25 1022 30.18 851 25.13 18.7 65.7 16 -7.9 17.8
11:30 1022 30.18 851 25.13 18.4 65.1 16 -7.5 18.5
11:35 1022 30.18 851 25.13 18.4 65 15 -8.4 17
11:40 1022 30.18 851 25.13 18.8 65.9 15 -8.1 17.5
11:45 1022 30.18 851 25.13 19.1 66.4 15 -8.2 17.3
11:50 1022 30.18 851 25.13 19.2 66.6 15 -8.1 17.4
11:55 1021 30.15 851 25.13 19.2 66.6 14 -8.4 16.8
12:00 1021 30.15 851 25.13 19.4 66.9 15 -8.2 17.3
12:05 1021 30.15 850 25.1 19.3 66.8 15 -8 17.5
12:10 1021 30.15 850 25.1 19.4 67 15 -8 17.6
12:15 1021 30.15 850 25.1 19.4 66.9 15 -8 17.6
12:20 1021 30.15 850 25.1 19.4 66.9 14 -8.3 17.1
12:25 1021 30.15 850 25.1 19.3 66.7 14 -8.5 16.7
12:30 1021 30.15 850 25.1 19.4 67 14 -8.3 17
12:35 1021 30.15 850 25.1 19.5 67.1 14 -8.4 16.9
12:40 1021 30.15 850 25.1 19.4 66.9 14 -8.3 17
12:45 1021 30.15 850 25.1 19.5 67 14 -8.3 17
12:50 1021 30.15 850 25.1 19.5 67 14 -8.4 16.8
12:55 1021 30.15 850 25.1 19.4 67 14 -8.4 16.9
13:00 1021 30.15 850 25.1 19.7 67.5 14 -8.4 16.9
13:05 1021 30.15 850 25.1 19.5 67.1 14 -8.5 16.7
13:10 1021 30.15 850 25.1 19.3 66.8 14 -8.5 16.6
13:15 1021 30.15 850 25.1 19.3 66.7 14 -8.5 16.8
13:20 1021 30.15 850 25.1 19.5 67 14 -8.3 17
13:25 1021 30.15 850 25.1 19.4 66.9 14 -8.3 17.1
13:30 1021 30.15 850 25.1 19.4 66.9 15 -8.2 17.2
13:35 1021 30.15 850 25.1 19.5 67.2 14 -8.4 16.9
13:40 1021 30.15 850 25.1 19.6 67.2 15 -7.7 18.2
13:45 1021 30.15 850 25.1 19.7 67.4 14 -8.5 16.7
13:50 1020 30.12 850 25.1 19.5 67.1 14 -8.5 16.7
13:55 1020 30.12 850 25.1 19.6 67.2 15 -8.1 17.5
14:00 1020 30.12 850 25.1 19.6 67.3 15 -8 17.7
14:05 1020 30.12 850 25.1 19.6 67.3 15 -7.8 18
14:10 1020 30.12 850 25.1 19.6 67.3 15 -8.1 17.5
14:15 1020 30.12 850 25.1 19.7 67.5 15 -7.9 17.8
14:20 1020 30.12 849 25.07 19.7 67.4 14 -8.3 17.1
14:25 1020 30.12 849 25.07 19.6 67.3 14 -8.1 17.5
14:30 1020 30.12 849 25.07 19.6 67.4 14 -8.3 17.1
14:35 1020 30.12 849 25.07 19.7 67.5 14 -8.7 16.3
14:40 1020 30.12 849 25.07 19.7 67.5 14 -8.4 16.9
14:45 1020 30.12 849 25.07 19.6 67.4 14 -8.4 16.9
14:50 1020 30.12 849 25.07 19.7 67.4 14 -8.7 16.4
14:55 1020 30.12 849 25.07 19.6 67.3 14 -8.6 16.5
15:00 1020 30.12 849 25.07 19.6 67.2 14 -8.5 16.6
15:05 1020 30.12 849 25.07 19.4 67 14 -8.8 16.1
15:10 1020 30.12 849 25.07 19.3 66.7 14 -9.2 15.4
15:15 1020 30.12 849 25.07 19.2 66.5 14 -8.5 16.7
15:20 1020 30.12 849 25.07 19.1 66.3 14 -8.8 16.2
15:25 1020 30.12 849 25.07 19.1 66.4 14 -8.9 15.9
15:30 1020 30.12 849 25.07 19.2 66.6 14 -8.7 16.3
15:35 1020 30.12 849 25.07 19.3 66.7 14 -8.6 16.5
15:40 1020 30.12 849 25.07 19.2 66.5 15 -8.3 17.1
15:45 1020 30.12 850 25.1 18.9 66 15 -8.5 16.8
15:50 1020 30.12 850 25.1 18.6 65.4 15 -8.8 16.2
15:55 1020 30.12 850 25.1 18.4 65.2 15 -8.6 16.4
16:00 1020 30.12 850 25.1 18.2 64.7 15 -8.7 16.3
16:05 1020 30.12 849 25.07 18.2 64.7 15 -8.6 16.5
16:10 1020 30.12 849 25.07 18.1 64.6 15 -8.9 16
16:15 1020 30.12 849 25.07 18.1 64.5 15 -8.6 16.5
16:20 1020 30.12 849 25.07 17.9 64.2 15 -8.8 16.2
16:25 1020 30.12 849 25.07 17.8 64 17 -7.8 17.9
16:30 1020 30.12 849 25.07 17.5 63.4 16 -8.6 16.6
16:35 1020 30.12 849 25.07 17.4 63.3 16 -8.4 16.8
16:40 1020 30.12 849 25.07 17.3 63.1 17 -8.2 17.2
16:45 1020 30.12 849 25.07 17 62.6 17 -8.1 17.5
16:50 1020 30.12 849 25.07 16.6 62 18 -7.8 17.9
16:55 1020 30.12 849 25.07 16.3 61.4 18 -8.2 17.2
17:00 1020 30.12 849 25.07 16.2 61.2 18 -8.3 17.1
17:05 1020 30.12 849 25.07 16.2 61.1 18 -8.4 16.8
17:10 1020 30.12 849 25.07 16 60.8 18 -8.1 17.4
17:15 1020 30.12 849 25.07 15.7 60.3 18 -8.2 17.2
17:20 1020 30.12 849 25.07 15.5 59.8 19 -7.9 17.7
17:25 1020 30.12 849 25.07 15.3 59.5 19 -8.2 17.3
17:30 1020 30.12 849 25.07 15.4 59.7 18 -8.4 16.8
17:35 1020 30.12 849 25.07 15.6 60 18 -8.5 16.7
17:40 1020 30.12 849 25.07 15.6 60.1 19 -8.1 17.4
17:45 1020 30.12 849 25.07 15.3 59.5 19 -8 17.6
17:50 1020 30.12 849 25.07 14.8 58.6 21 -7.6 18.3
17:55 1020 30.12 849 25.07 14.6 58.2 20 -8.4 16.9
18:00 1020 30.12 849 25.07 14.6 58.3 20 -7.8 18
18:05 1020 30.12 849 25.07 14.4 57.8 21 -7.8 17.9
18:10 1020 30.12 849 25.07 14.1 57.4 21 -7.8 17.9
18:15 1020 30.12 849 25.07 14 57.2 22 -7.6 18.3
18:20 1020 30.12 849 25.07 13.7 56.6 22 -7.4 18.7
18:25 1020 30.12 849 25.07 13.4 56 23 -7.5 18.4
18:30 1020 30.12 849 25.07 13.3 55.9 23 -7.4 18.7
18:35 1020 30.12 849 25.07 13.2 55.8 23 -7.4 18.6
18:40 1020 30.12 849 25.07 13.3 55.9 23 -7.6 18.3
18:45 1020 30.12 849 25.07 13.4 56.2 23 -7.5 18.6
18:50 1020 30.12 849 25.07 13.5 56.2 22 -7.5 18.4
18:55 1020 30.12 849 25.07 13.4 56.1 23 -7.4 18.6
19:00 1020 30.12 849 25.07 13.4 56.1 22 -7.8 18
19:05 1020 30.12 849 25.07 13.3 55.9 23 -7.5 18.5
19:10 1020 30.12 849 25.07 13.2 55.7 23 -7.5 18.4
19:15 1020 30.12 849 25.07 13.1 55.6 23 -7.4 18.6
19:20 1020 30.12 849 25.07 13.2 55.8 23 -7.6 18.4
19:25 1020 30.12 849 25.07 13.3 55.9 23 -7.5 18.5
19:30 1020 30.12 849 25.07 13.2 55.8 23 -7.5 18.5
19:35 1020 30.12 849 25.07 13.2 55.8 23 -7.4 18.7
19:40 1020 30.12 849 25.07 13 55.5 24 -7.3 18.9
19:45 1020 30.12 849 25.07 12.7 54.9 25 -7 19.4
19:50 1020 30.12 849 25.07 12.3 54.2 25 -6.9 19.6
19:55 1020 30.12 849 25.07 12.1 53.8 26 -6.8 19.8
20:00 1020 30.12 849 25.07 11.8 53.2 26 -6.9 19.6
20:05 1020 30.12 849 25.07 11.7 53 28 -6.4 20.5
20:10 1020 30.12 849 25.07 11.2 52.2 27 -6.9 19.6
20:15 1020 30.12 849 25.07 11.7 53 26 -6.9 19.5
20:20 1020 30.12 849 25.07 11.7 53.1 27 -6.8 19.7
20:25 1020 30.12 849 25.07 11.9 53.4 25 -7.3 18.9
20:30 1020 30.12 849 25.07 12.2 54 25 -7.1 19.2
20:35 1020 30.12 849 25.07 12.1 53.7 26 -6.9 19.6
20:40 1020 30.12 849 25.07 11.7 53 27 -6.8 19.8
20:45 1020 30.12 849 25.07 11.7 53 27 -6.7 19.9
20:50 1020 30.12 849 25.07 11.5 52.7 27 -6.6 20
20:55 1020 30.12 849 25.07 11.5 52.6 27 -7 19.4
21:00 1020 30.12 849 25.07 11.7 53.1 27 -6.9 19.6
21:05 1020 30.12 850 25.1 11.9 53.4 25 -7.4 18.6
21:10 1020 30.12 849 25.07 12.4 54.3 24 -7.6 18.3
21:15 1020 30.12 850 25.1 12.7 54.9 24 -7.2 19.1
21:20 1020 30.12 850 25.1 12.6 54.7 24 -7.2 19.1
21:25 1020 30.12 850 25.1 12.6 54.6 24 -7.4 18.6
21:30 1020 30.12 850 25.1 12.7 54.8 24 -7.4 18.7
21:35 1020 30.12 850 25.1 12.7 54.8 24 -7.2 19
21:40 1020 30.12 850 25.1 12.6 54.6 24 -7.3 18.8
21:45 1020 30.12 850 25.1 12.5 54.6 24 -7.3 18.9
21:50 1020 30.12 850 25.1 12.4 54.3 25 -7 19.4
21:55 1021 30.15 850 25.1 12.1 53.8 25 -7.3 18.9
22:00 1021 30.15 850 25.1 12.1 53.7 25 -7.1 19.2
22:05 1021 30.15 850 25.1 11.9 53.4 26 -6.9 19.5
22:10 1021 30.15 850 25.1 12 53.5 25 -7.3 18.9
22:15 1021 30.15 850 25.1 12 53.5 27 -6.4 20.4
22:20 1021 30.15 850 25.1 11.2 52.2 27 -7 19.4
22:25 1021 30.15 850 25.1 11.2 52.2 27 -7.2 19.1
22:30 1021 30.15 850 25.1 11.5 52.7 27 -6.8 19.8
22:35 1021 30.15 850 25.1 11.3 52.3 27 -7.1 19.3
22:40 1021 30.15 850 25.1 11.4 52.4 27 -6.9 19.5
22:45 1021 30.15 850 25.1 11.3 52.4 27 -6.9 19.5
22:50 1021 30.15 850 25.1 11.3 52.3 28 -6.5 20.2
22:55 1021 30.15 850 25.1 10.9 51.6 28 -6.9 19.7
23:00 1021 30.15 850 25.1 11 51.8 28 -6.6 20.1
23:05 1021 30.15 850 25.1 11 51.7 29 -6.6 20.2
23:10 1021 30.15 850 25.1 10.7 51.2 29 -6.6 20.1
23:15 1021 30.15 850 25.1 10.6 51.2 29 -6.6 20.1
23:20 1021 30.15 850 25.1 10.4 50.7 30 -6.3 20.6
23:25 1021 30.15 850 25.1 9.6 49.3 33 -6 21.1
23:30 1021 30.15 850 25.1 9.1 48.4 33 -6.3 20.6
23:35 1021 30.15 850 25.1 9.1 48.3 33 -6.4 20.4
23:40 1021 30.15 850 25.1 9.1 48.5 34 -5.9 21.4
23:45 1021 30.15 851 25.13 8.8 47.8 36 -5.4 22.3
23:50 1021 30.15 851 25.13 8.4 47.1 33 -6.9 19.6
23:55 1021 30.15 851 25.13 9 48.2 36 -5.3 22.5
24:00 1021 30.15 851 25.13 8.2 46.7 36 -5.8 21.5